Time;durP1;ratioP1;P1;durP2;ratioP2;P2;SDS_P1;SDS_P2;PMS_P1;PMS_P2;Temp;Humidity;BMP_temperature;BMP_pressure;BME280_temperature;BME280_humidity;BME280_pressure;Samples;Min_cycle;Max_cycle;Signal;HPM_P1;HPM_P2
2023/04/14 00:01:27;;;;;;;5.30;2.60;;;6.70;99.90;;;;;;4968111;28;20391;-76
2023/04/14 00:03:53;;;;;;;9.05;2.67;;;6.70;99.90;;;;;;4981512;28;20041;-76
2023/04/14 00:06:18;;;;;;;7.82;2.35;;;6.70;99.90;;;;;;4968413;28;20125;-76
2023/04/14 00:08:44;;;;;;;5.70;2.75;;;6.70;99.90;;;;;;4967706;28;20031;-76
2023/04/14 00:11:10;;;;;;;6.65;2.40;;;6.70;99.90;;;;;;4969062;28;20034;-76
2023/04/14 00:13:35;;;;;;;5.53;2.10;;;6.60;99.90;;;;;;4969564;28;20494;-78
2023/04/14 00:16:01;;;;;;;5.05;2.65;;;6.60;99.90;;;;;;4971907;28;20018;-77
2023/04/14 00:18:27;;;;;;;5.50;2.30;;;6.60;99.90;;;;;;4969238;28;20057;-76
2023/04/14 00:20:55;;;;;;;4.60;2.08;;;6.70;99.90;;;;;;4970205;28;20054;-76
2023/04/14 00:23:21;;;;;;;7.78;2.72;;;6.70;99.90;;;;;;4981989;28;20030;-76
2023/04/14 00:25:48;;;;;;;5.45;2.35;;;6.70;99.90;;;;;;4970635;28;20046;-76
2023/04/14 00:28:14;;;;;;;5.10;2.28;;;6.70;99.90;;;;;;4973052;28;20030;-76
2023/04/14 00:30:40;;;;;;;4.22;2.05;;;6.60;99.90;;;;;;4983289;28;20130;-76
2023/04/14 00:33:05;;;;;;;7.55;2.38;;;6.60;99.90;;;;;;4968216;28;20379;-76
2023/04/14 00:35:31;;;;;;;6.43;2.63;;;6.60;99.90;;;;;;4968751;28;20046;-76
2023/04/14 00:37:57;;;;;;;4.03;2.20;;;6.60;99.90;;;;;;4969861;28;20110;-77
2023/04/14 00:40:23;;;;;;;6.00;2.50;;;6.60;99.90;;;;;;4968578;28;20026;-77
2023/04/14 00:42:49;;;;;;;6.10;2.13;;;6.60;99.90;;;;;;4985883;28;20063;-76
2023/04/14 00:45:15;;;;;;;3.53;1.92;;;6.60;99.90;;;;;;4970899;28;20463;-76
2023/04/14 00:47:45;;;;;;;4.78;2.05;;;6.60;99.90;;;;;;4969510;28;20392;-76
2023/04/14 00:50:13;;;;;;;5.15;2.17;;;6.60;99.90;;;;;;4971903;28;20026;-77
2023/04/14 00:52:40;;;;;;;4.75;1.98;;;6.60;99.90;;;;;;4977657;28;20614;-77
2023/04/14 00:55:06;;;;;;;4.80;2.10;;;6.60;99.90;;;;;;4975485;28;20033;-76
2023/04/14 00:57:32;;;;;;;4.80;2.40;;;6.60;99.90;;;;;;4973075;28;20444;-76
2023/04/14 00:59:59;;;;;;;6.32;2.63;;;6.60;99.90;;;;;;4968757;28;20084;-76
2023/04/14 01:02:25;;;;;;;8.20;2.63;;;6.60;99.90;;;;;;4975371;28;20030;-77
2023/04/14 01:04:51;;;;;;;4.35;2.72;;;6.60;99.90;;;;;;4971500;28;20465;-77
2023/04/14 01:07:18;;;;;;;8.98;3.20;;;6.60;99.90;;;;;;4975669;28;20042;-77
2023/04/14 01:09:44;;;;;;;6.25;2.72;;;6.60;99.90;;;;;;4968727;28;20110;-77
2023/04/14 01:12:47;;;;;;;7.28;3.20;;;6.60;99.90;;;;;;4973372;28;20030;-76
2023/04/14 01:15:40;;;;;;;6.43;2.60;;;6.60;99.90;;;;;;4969984;28;20054;-76
2023/04/14 01:18:25;;;;;;;5.63;2.55;;;6.60;99.90;;;;;;4973266;28;20396;-77
2023/04/14 01:21:00;;;;;;;6.15;2.60;;;6.60;99.90;;;;;;4970583;28;20727;-76
2023/04/14 01:23:30;;;;;;;4.93;2.50;;;6.60;99.90;;;;;;4986907;28;20081;-76
2023/04/14 01:26:05;;;;;;;5.95;2.53;;;6.60;99.90;;;;;;4971063;28;20030;-76
2023/04/14 01:28:58;;;;;;;7.28;2.55;;;6.60;99.90;;;;;;4972027;28;20070;-76
2023/04/14 01:31:29;;;;;;;9.80;2.45;;;6.60;99.90;;;;;;4971591;28;20368;-77
2023/04/14 01:34:27;;;;;;;5.63;2.17;;;6.60;99.90;;;;;;4968924;28;20019;-76
2023/04/14 01:37:08;;;;;;;6.05;2.10;;;6.60;99.90;;;;;;4938623;28;20081;-76
2023/04/14 01:39:45;;;;;;;5.55;2.47;;;6.60;99.90;;;;;;4966154;28;20050;-76
2023/04/14 01:42:16;;;;;;;5.32;2.28;;;6.60;99.90;;;;;;4969612;28;20041;-76
2023/04/14 01:44:42;;;;;;;7.90;3.00;;;6.60;99.90;;;;;;4969437;28;20175;-76
2023/04/14 01:47:12;;;;;;;5.45;2.80;;;6.60;99.90;;;;;;4973211;28;20035;-76
2023/04/14 01:49:39;;;;;;;4.45;2.53;;;6.60;99.90;;;;;;4970325;28;20166;-75
2023/04/14 01:52:09;;;;;;;7.68;2.72;;;6.60;99.90;;;;;;4972566;28;20031;-77
2023/04/14 01:54:37;;;;;;;6.60;2.13;;;6.60;99.90;;;;;;4972247;28;20023;-77
2023/04/14 01:57:05;;;;;;;7.43;2.72;;;6.60;99.90;;;;;;4974067;28;20027;-77
2023/04/14 01:59:32;;;;;;;6.85;2.45;;;6.60;99.90;;;;;;4972702;28;20340;-76
2023/04/14 02:02:01;;;;;;;4.85;2.45;;;6.50;99.90;;;;;;4972441;28;20030;-76
2023/04/14 02:04:28;;;;;;;6.38;1.85;;;6.50;99.90;;;;;;4971635;28;20031;-76
2023/04/14 02:06:57;;;;;;;5.03;2.15;;;6.50;99.90;;;;;;4971478;28;20489;-77
2023/04/14 02:09:25;;;;;;;5.45;1.88;;;6.50;99.90;;;;;;4971769;28;20027;-77
2023/04/14 02:11:53;;;;;;;4.93;2.20;;;6.50;99.90;;;;;;4973550;28;20046;-77
2023/04/14 02:14:21;;;;;;;7.60;1.70;;;6.50;99.90;;;;;;4974989;28;20030;-76
2023/04/14 02:16:49;;;;;;;3.95;1.85;;;6.40;99.90;;;;;;4974238;28;20038;-76
2023/04/14 02:19:19;;;;;;;5.45;1.88;;;6.40;99.90;;;;;;4973423;28;20019;-76
2023/04/14 02:21:49;;;;;;;6.25;2.17;;;6.40;99.90;;;;;;4987882;28;20138;-76
2023/04/14 02:24:15;;;;;;;4.30;2.15;;;6.40;99.90;;;;;;4968219;28;20510;-76
2023/04/14 02:26:57;;;;;;;7.78;2.78;;;6.40;99.90;;;;;;4974261;28;20041;-76
2023/04/14 02:29:25;;;;;;;10.45;4.22;;;6.40;99.90;;;;;;4984780;28;20423;-77
2023/04/14 02:32:05;;;;;;;5.45;2.72;;;6.30;99.90;;;;;;4968472;28;20118;-76
2023/04/14 02:34:36;;;;;;;9.23;3.55;;;6.30;99.90;;;;;;4972802;28;20030;-76
2023/04/14 02:37:08;;;;;;;7.53;2.65;;;6.30;99.90;;;;;;4984995;28;20381;-75
2023/04/14 02:39:41;;;;;;;7.43;2.63;;;6.20;99.90;;;;;;4970323;28;20027;-77
2023/04/14 02:42:13;;;;;;;6.28;2.42;;;6.20;99.90;;;;;;4969602;28;20030;-76
2023/04/14 02:44:44;;;;;;;7.82;2.58;;;6.20;99.90;;;;;;4968769;28;20081;-77
2023/04/14 02:47:14;;;;;;;5.65;2.28;;;6.20;99.90;;;;;;4985842;28;20089;-77
2023/04/14 02:49:43;;;;;;;8.98;3.05;;;6.20;99.90;;;;;;4971189;28;20065;-76
2023/04/14 02:52:10;;;;;;;6.25;2.45;;;6.10;99.90;;;;;;4971616;28;20023;-77
2023/04/14 02:54:40;;;;;;;5.55;2.97;;;6.10;99.90;;;;;;4970762;28;20098;-77
2023/04/14 02:57:07;;;;;;;6.75;3.33;;;6.10;99.90;;;;;;4970421;28;20073;-77
2023/04/14 02:59:33;;;;;;;9.23;2.38;;;6.10;99.90;;;;;;4968584;28;20094;-77
2023/04/14 03:02:03;;;;;;;4.40;2.13;;;6.00;99.90;;;;;;4966692;28;20070;-77
2023/04/14 03:04:33;;;;;;;9.40;2.60;;;6.00;99.90;;;;;;4970680;28;20022;-77
2023/04/14 03:07:00;;;;;;;7.60;3.13;;;5.90;99.90;;;;;;4967552;28;20027;-77
2023/04/14 03:09:28;;;;;;;10.70;3.15;;;5.90;99.90;;;;;;4968573;28;20026;-77
2023/04/14 03:11:55;;;;;;;8.75;2.65;;;5.90;99.90;;;;;;4971066;28;20101;-77
2023/04/14 03:14:22;;;;;;;8.95;2.60;;;5.90;99.90;;;;;;4970824;28;20019;-77
2023/04/14 03:16:52;;;;;;;9.70;3.42;;;5.80;99.90;;;;;;4972158;28;20029;-77
2023/04/14 03:19:22;;;;;;;5.18;2.30;;;5.80;99.90;;;;;;4972510;28;20023;-77
2023/04/14 03:21:49;;;;;;;6.50;3.05;;;5.80;99.90;;;;;;4974084;28;20058;-77
2023/04/14 03:24:18;;;;;;;8.77;2.60;;;5.70;99.90;;;;;;4968044;28;20035;-77
2023/04/14 03:26:46;;;;;;;7.65;3.22;;;5.70;99.90;;;;;;4969928;28;20034;-77
2023/04/14 03:29:14;;;;;;;5.60;2.17;;;5.70;99.90;;;;;;4965260;28;20114;-77
2023/04/14 03:31:43;;;;;;;7.35;3.17;;;5.60;99.90;;;;;;4965551;28;20034;-77
2023/04/14 03:34:09;;;;;;;11.00;3.22;;;5.60;99.90;;;;;;4970272;28;20026;-77
2023/04/14 03:36:36;;;;;;;7.68;2.50;;;5.50;99.90;;;;;;4971171;28;20080;-77
2023/04/14 03:39:04;;;;;;;7.22;3.08;;;5.50;99.90;;;;;;4970226;28;20029;-77
2023/04/14 03:41:34;;;;;;;9.27;3.10;;;5.50;99.90;;;;;;4968175;28;20022;-77
2023/04/14 03:44:02;;;;;;;6.32;2.67;;;5.40;99.90;;;;;;4967944;28;20035;-76
2023/04/14 03:46:29;;;;;;;6.82;2.38;;;5.40;99.90;;;;;;4970126;28;20061;-76
2023/04/14 03:48:57;;;;;;;10.90;2.90;;;5.30;99.90;;;;;;4967788;28;20038;-77
2023/04/14 03:51:26;;;;;;;7.28;2.60;;;5.30;99.90;;;;;;4964372;28;20072;-76
2023/04/14 03:53:55;;;;;;;8.27;2.80;;;5.30;99.90;;;;;;4965793;28;20077;-76
2023/04/14 03:56:21;;;;;;;12.73;2.42;;;5.20;99.90;;;;;;4984748;28;20888;-77
2023/04/14 03:58:52;;;;;;;5.78;2.40;;;5.20;99.90;;;;;;4967818;28;20506;-76
2023/04/14 04:01:18;;;;;;;5.20;2.58;;;5.20;99.90;;;;;;4967166;28;20096;-76
2023/04/14 04:03:45;;;;;;;9.70;2.67;;;5.10;99.90;;;;;;4968104;28;20503;-77
2023/04/14 04:06:11;;;;;;;11.27;3.35;;;5.10;99.90;;;;;;4970974;28;20038;-77
2023/04/14 04:08:39;;;;;;;8.98;2.88;;;5.10;99.90;;;;;;4971034;28;20379;-77
2023/04/14 04:11:08;;;;;;;8.98;2.72;;;5.00;99.90;;;;;;4971146;28;20034;-76
2023/04/14 04:13:36;;;;;;;9.07;2.67;;;5.00;99.90;;;;;;4979862;28;20074;-76
2023/04/14 04:16:03;;;;;;;5.47;2.70;;;4.90;99.90;;;;;;4971386;28;20034;-77
2023/04/14 04:18:30;;;;;;;9.40;2.47;;;4.90;99.90;;;;;;4968412;28;20028;-76
2023/04/14 04:20:57;;;;;;;14.90;2.78;;;4.90;99.90;;;;;;5000072;23;20038;-78
2023/04/14 04:23:24;;;;;;;9.88;2.92;;;4.90;99.90;;;;;;4968720;28;20023;-78
2023/04/14 04:25:52;;;;;;;6.07;2.00;;;4.90;99.90;;;;;;4970843;28;20125;-79
2023/04/14 04:28:18;;;;;;;7.85;3.00;;;4.80;99.90;;;;;;4968246;28;20015;-78
2023/04/14 04:30:45;;;;;;;8.65;3.15;;;4.80;99.90;;;;;;4978960;28;20121;-79
2023/04/14 04:33:12;;;;;;;11.82;2.88;;;4.80;99.90;;;;;;4970619;28;20030;-78
2023/04/14 04:35:39;;;;;;;8.05;2.30;;;4.80;99.90;;;;;;4983236;28;20105;-78
2023/04/14 04:38:06;;;;;;;7.53;2.55;;;4.70;99.90;;;;;;4966922;28;20444;-78
2023/04/14 04:40:37;;;;;;;8.70;2.83;;;4.70;99.90;;;;;;4965484;28;20078;-78
2023/04/14 04:43:03;;;;;;;6.45;2.40;;;4.80;99.90;;;;;;4970721;28;20023;-79
2023/04/14 04:46:10;;;;;;;7.65;2.80;;;4.80;99.90;;;;;;4971605;28;20582;-79
2023/04/14 04:48:35;;;;;;;9.40;2.80;;;4.80;99.90;;;;;;4972490;28;20027;-78
2023/04/14 04:51:01;;;;;;;7.18;2.92;;;4.80;99.90;;;;;;4985830;28;20039;-79
2023/04/14 04:53:27;;;;;;;8.90;2.50;;;4.80;99.90;;;;;;4971469;28;20019;-80
2023/04/14 04:55:52;;;;;;;10.05;3.53;;;4.80;99.90;;;;;;4973749;28;20106;-80
2023/04/14 04:58:18;;;;;;;5.63;2.45;;;4.80;99.90;;;;;;5001585;28;20027;-80
2023/04/14 05:00:44;;;;;;;6.68;2.25;;;4.80;99.90;;;;;;4974817;28;20035;-79
2023/04/14 05:03:09;;;;;;;9.93;2.47;;;4.80;99.90;;;;;;4972172;28;20027;-80
2023/04/14 05:05:36;;;;;;;7.68;3.30;;;4.70;99.90;;;;;;4998862;28;20039;-79
2023/04/14 05:08:01;;;;;;;6.90;2.30;;;4.70;99.90;;;;;;4969369;28;20031;-78
2023/04/14 05:10:27;;;;;;;18.98;2.65;;;4.70;99.90;;;;;;4970792;28;20475;-79
2023/04/14 05:12:53;;;;;;;11.43;2.95;;;4.70;99.90;;;;;;4970854;28;20034;-79
2023/04/14 05:15:18;;;;;;;15.70;2.78;;;4.70;99.90;;;;;;4967128;28;20534;-79
2023/04/14 05:17:45;;;;;;;10.13;3.92;;;4.70;99.90;;;;;;4970944;28;20057;-79
2023/04/14 05:20:11;;;;;;;10.90;3.65;;;4.70;99.90;;;;;;4968243;28;20104;-79
2023/04/14 05:22:37;;;;;;;9.07;3.30;;;4.70;99.90;;;;;;4968857;28;20023;-79
2023/04/14 05:25:02;;;;;;;10.07;3.10;;;4.70;99.90;;;;;;4969958;28;20099;-79
2023/04/14 05:27:28;;;;;;;8.82;3.42;;;4.80;99.90;;;;;;4971179;28;20105;-80
2023/04/14 05:29:54;;;;;;;9.15;2.90;;;4.80;99.90;;;;;;4972604;28;20050;-79
2023/04/14 05:32:20;;;;;;;9.77;3.42;;;4.90;99.90;;;;;;4977740;28;20027;-79
2023/04/14 05:34:46;;;;;;;9.13;3.10;;;4.90;99.90;;;;;;4961796;28;20023;-80
2023/04/14 05:37:12;;;;;;;12.05;4.15;;;5.00;99.90;;;;;;4967044;28;20029;-79
2023/04/14 05:39:37;;;;;;;10.13;3.17;;;5.10;99.90;;;;;;4970561;28;20400;-80
2023/04/14 05:42:03;;;;;;;12.48;4.70;;;5.10;99.90;;;;;;4971628;28;20038;-79
2023/04/14 05:44:29;;;;;;;8.98;3.33;;;5.20;99.90;;;;;;4971516;28;20035;-78
2023/04/14 05:46:55;;;;;;;10.88;3.97;;;5.30;99.90;;;;;;4975727;28;20030;-77
2023/04/14 05:49:20;;;;;;;7.80;2.70;;;5.40;99.90;;;;;;4974269;28;20114;-77
2023/04/14 05:51:46;;;;;;;12.60;2.97;;;5.50;99.90;;;;;;4974202;28;20037;-78
2023/04/14 05:54:12;;;;;;;13.18;3.65;;;5.50;99.90;;;;;;4972724;28;20039;-78
2023/04/14 05:56:38;;;;;;;17.17;3.60;;;5.50;99.90;;;;;;4970691;28;20037;-79
2023/04/14 05:59:03;;;;;;;10.40;3.13;;;5.50;99.90;;;;;;4969410;28;20448;-79
2023/04/14 06:01:29;;;;;;;11.98;3.53;;;5.50;99.90;;;;;;4985565;28;20069;-79
2023/04/14 06:03:55;;;;;;;9.60;3.80;;;5.60;99.90;;;;;;4973702;28;20022;-78
2023/04/14 06:06:25;;;;;;;11.15;3.72;;;5.60;99.90;;;;;;4973518;28;20480;-78
2023/04/14 06:08:50;;;;;;;12.40;3.15;;;5.70;99.90;;;;;;4985771;28;20395;-79
2023/04/14 06:11:16;;;;;;;8.88;3.47;;;5.70;99.90;;;;;;4974370;28;20092;-78
2023/04/14 06:13:41;;;;;;;13.65;3.65;;;5.70;99.90;;;;;;4971382;28;20054;-78
2023/04/14 06:16:07;;;;;;;9.82;3.47;;;5.80;99.90;;;;;;4969638;28;20219;-78
2023/04/14 06:18:33;;;;;;;8.65;3.58;;;5.90;99.90;;;;;;4972404;28;20033;-78
2023/04/14 06:20:59;;;;;;;12.38;4.07;;;5.90;99.90;;;;;;4972151;28;20019;-79
2023/04/14 06:23:25;;;;;;;13.45;4.05;;;5.90;99.90;;;;;;4970591;28;20058;-79
2023/04/14 06:25:51;;;;;;;15.55;4.70;;;6.00;99.90;;;;;;4974224;28;20125;-79
2023/04/14 06:28:18;;;;;;;11.05;3.95;;;6.10;99.90;;;;;;4971337;28;20499;-79
2023/04/14 06:30:44;;;;;;;9.60;4.00;;;6.20;99.90;;;;;;4969480;28;20517;-79
2023/04/14 06:33:10;;;;;;;8.13;2.92;;;6.30;99.90;;;;;;4968721;28;20031;-78
2023/04/14 06:35:35;;;;;;;8.00;2.97;;;6.30;99.90;;;;;;4987860;28;20026;-78
2023/04/14 06:38:01;;;;;;;7.45;2.65;;;6.40;99.90;;;;;;4971604;28;20400;-78
2023/04/14 06:40:27;;;;;;;10.45;3.25;;;6.50;99.90;;;;;;4975528;28;20026;-77
2023/04/14 06:42:52;;;;;;;8.48;2.50;;;6.50;99.90;;;;;;4966325;28;20057;-79
2023/04/14 06:45:18;;;;;;;8.50;2.50;;;6.60;99.90;;;;;;4969816;28;20113;-78
2023/04/14 06:47:44;;;;;;;8.15;2.60;;;6.70;99.90;;;;;;4973059;28;20039;-78
2023/04/14 06:50:11;;;;;;;11.05;2.88;;;6.70;99.90;;;;;;4970985;28;20031;-79
2023/04/14 06:52:36;;;;;;;8.07;2.45;;;6.70;99.90;;;;;;4980484;28;20026;-79
2023/04/14 06:55:02;;;;;;;8.05;2.38;;;6.70;99.90;;;;;;4973700;28;20026;-79
2023/04/14 06:57:28;;;;;;;8.80;2.72;;;6.70;99.90;;;;;;4966935;28;20054;-79
2023/04/14 06:59:53;;;;;;;9.70;2.10;;;6.70;99.90;;;;;;4974498;28;20097;-78
2023/04/14 07:02:19;;;;;;;7.20;2.25;;;6.70;99.90;;;;;;4971757;28;20077;-79
2023/04/14 07:04:45;;;;;;;5.53;1.70;;;6.80;99.90;;;;;;4967252;28;20031;-78
2023/04/14 07:07:13;;;;;;;5.68;1.92;;;6.90;99.90;;;;;;4975593;28;20046;-78
2023/04/14 07:09:40;;;;;;;6.80;1.30;;;6.90;99.90;;;;;;4986495;28;20046;-78
2023/04/14 07:12:10;;;;;;;5.55;1.30;;;7.10;99.90;;;;;;4968303;28;20046;-80
2023/04/14 07:14:36;;;;;;;12.60;2.17;;;7.20;99.90;;;;;;4985109;28;20026;-80
2023/04/14 07:17:02;;;;;;;4.55;1.30;;;7.30;99.90;;;;;;4976155;28;20500;-79
2023/04/14 07:19:28;;;;;;;4.95;1.08;;;7.30;99.90;;;;;;4967665;28;20018;-79
2023/04/14 07:21:53;;;;;;;5.43;1.33;;;7.40;99.90;;;;;;4975574;28;20403;-78
2023/04/14 07:24:19;;;;;;;3.97;1.02;;;7.50;99.90;;;;;;4977483;28;20097;-79
2023/04/14 07:26:45;;;;;;;9.75;1.15;;;7.60;99.90;;;;;;4969992;28;20057;-79
2023/04/14 07:29:11;;;;;;;5.47;1.42;;;7.60;99.90;;;;;;4972604;28;20049;-79
2023/04/14 07:31:38;;;;;;;4.32;1.50;;;7.70;99.90;;;;;;4974174;28;20491;-79
2023/04/14 07:34:04;;;;;;;6.13;1.33;;;7.70;99.90;;;;;;4968120;28;20027;-79
2023/04/14 07:36:31;;;;;;;6.85;1.45;;;7.90;99.90;;;;;;4984669;28;20034;-79
2023/04/14 07:38:57;;;;;;;4.40;1.15;;;7.90;99.90;;;;;;4966774;28;20030;-79
2023/04/14 07:41:23;;;;;;;5.47;1.17;;;8.00;99.90;;;;;;4971167;28;20687;-79
2023/04/14 07:43:49;;;;;;;7.28;1.88;;;8.10;99.90;;;;;;4971951;28;20510;-79
2023/04/14 07:46:15;;;;;;;9.38;1.40;;;8.10;99.90;;;;;;4983843;28;20054;-78
2023/04/14 07:48:40;;;;;;;13.70;1.63;;;8.20;99.90;;;;;;4973308;28;20046;-79
2023/04/14 07:51:10;;;;;;;3.60;1.27;;;8.20;99.90;;;;;;4986898;28;20030;-79
2023/04/14 07:53:41;;;;;;;4.40;1.13;;;8.30;99.90;;;;;;4973467;28;20074;-79
2023/04/14 07:56:06;;;;;;;5.85;1.17;;;8.40;99.90;;;;;;4968908;28;20019;-80
2023/04/14 07:58:32;;;;;;;4.72;1.55;;;8.40;99.90;;;;;;4968292;28;20360;-80
2023/04/14 08:00:58;;;;;;;6.60;1.63;;;8.40;99.90;;;;;;4972284;28;20467;-79
2023/04/14 08:03:24;;;;;;;4.72;1.38;;;8.50;99.90;;;;;;4971277;28;20030;-79
2023/04/14 08:05:51;;;;;;;4.50;1.27;;;8.60;99.90;;;;;;4972018;28;20030;-79
2023/04/14 08:08:17;;;;;;;10.88;1.77;;;8.60;99.90;;;;;;4969687;28;20041;-79
2023/04/14 08:10:42;;;;;;;6.32;1.35;;;8.70;99.90;;;;;;4973253;28;20493;-79
2023/04/14 08:13:08;;;;;;;5.80;1.45;;;8.70;99.90;;;;;;4970603;28;20022;-79
2023/04/14 08:15:34;;;;;;;5.80;1.75;;;8.80;99.90;;;;;;4972327;28;20054;-79
2023/04/14 08:18:00;;;;;;;2.67;1.35;;;8.90;99.90;;;;;;4970561;28;20285;-79
2023/04/14 08:20:26;;;;;;;6.72;1.38;;;8.90;99.90;;;;;;4993640;28;20142;-80
2023/04/14 08:22:51;;;;;;;6.50;1.30;;;8.90;99.90;;;;;;4970826;28;20555;-78
2023/04/14 08:25:17;;;;;;;8.18;1.58;;;8.90;99.90;;;;;;4969733;28;20069;-79
2023/04/14 08:27:43;;;;;;;6.07;1.30;;;9.00;99.90;;;;;;4971888;28;20166;-79
2023/04/14 08:30:10;;;;;;;6.05;1.42;;;9.10;99.90;;;;;;4971324;28;20037;-80
2023/04/14 08:32:35;;;;;;;3.90;0.90;;;9.10;99.90;;;;;;4970550;28;20034;-79
2023/04/14 08:35:01;;;;;;;6.35;1.95;;;9.20;99.90;;;;;;4970368;28;20053;-79
2023/04/14 08:37:27;;;;;;;6.80;1.50;;;9.20;99.90;;;;;;4969516;28;20026;-79
2023/04/14 08:39:52;;;;;;;7.32;1.38;;;9.30;99.90;;;;;;4986815;28;20037;-79
2023/04/14 08:42:20;;;;;;;4.53;0.95;;;9.30;99.90;;;;;;4968482;28;20031;-78
2023/04/14 08:44:46;;;;;;;5.45;1.40;;;9.30;99.90;;;;;;4968855;28;20085;-79
2023/04/14 08:47:13;;;;;;;4.00;1.13;;;9.20;99.90;;;;;;4967142;28;20437;-78
2023/04/14 08:50:21;;;;;;;5.35;1.52;;;9.20;99.90;;;;;;4971505;28;20038;-79
2023/04/14 08:52:48;;;;;;;5.40;1.33;;;9.30;99.90;;;;;;4907107;29;20400;-79
2023/04/14 08:55:15;;;;;;;5.22;1.63;;;9.40;99.90;;;;;;4906457;29;20063;-79
2023/04/14 08:57:42;;;;;;;6.82;1.67;;;9.40;99.90;;;;;;4936911;28;20129;-79
2023/04/14 09:00:09;;;;;;;5.25;1.13;;;9.50;99.90;;;;;;4957439;28;20031;-79
2023/04/14 09:02:36;;;;;;;7.47;1.42;;;9.60;99.90;;;;;;4961666;28;20034;-79
2023/04/14 09:05:02;;;;;;;5.82;1.48;;;9.60;99.90;;;;;;4980340;28;20507;-78
2023/04/14 09:07:29;;;;;;;8.52;1.40;;;9.70;99.90;;;;;;4962523;28;20050;-80
2023/04/14 09:09:56;;;;;;;5.28;1.48;;;9.80;99.90;;;;;;4986274;28;20019;-79
2023/04/14 09:12:23;;;;;;;5.03;1.45;;;9.90;99.90;;;;;;4967909;28;20420;-79
2023/04/14 09:14:51;;;;;;;6.13;1.50;;;10.00;99.90;;;;;;4969425;28;20026;-79
2023/04/14 09:17:16;;;;;;;4.70;1.42;;;10.00;99.90;;;;;;4968947;28;20107;-79
2023/04/14 09:19:42;;;;;;;9.63;1.83;;;10.10;99.90;;;;;;4967225;28;20098;-79
2023/04/14 09:22:09;;;;;;;6.55;1.33;;;10.10;99.90;;;;;;4967220;28;20062;-79
2023/04/14 09:24:35;;;;;;;3.40;1.38;;;10.20;99.90;;;;;;4971569;28;20022;-79
2023/04/14 09:27:04;;;;;;;4.53;1.88;;;10.10;99.90;;;;;;4972256;28;20132;-80
2023/04/14 09:29:31;;;;;;;8.88;1.70;;;10.20;99.90;;;;;;4972049;28;20031;-79
2023/04/14 09:31:57;;;;;;;5.30;1.30;;;10.20;99.90;;;;;;4978087;28;20495;-79
2023/04/14 09:34:23;;;;;;;6.97;1.75;;;10.20;99.90;;;;;;4967214;28;20102;-80
2023/04/14 09:37:06;;;;;;;5.43;1.55;;;10.30;99.80;;;;;;4985184;28;20035;-80
2023/04/14 09:39:33;;;;;;;4.65;1.20;;;10.30;99.40;;;;;;4972805;28;20118;-80
2023/04/14 09:42:00;;;;;;;4.22;1.42;;;10.30;99.50;;;;;;4972045;28;20026;-79
2023/04/14 09:44:26;;;;;;;4.93;1.42;;;10.40;99.90;;;;;;4972063;28;20392;-80
2023/04/14 09:47:14;;;;;;;4.82;1.15;;;10.50;99.90;;;;;;5002657;28;20073;-80
2023/04/14 09:49:57;;;;;;;7.35;1.33;;;10.50;99.20;;;;;;4983624;28;20027;-79
2023/04/14 09:52:37;;;;;;;6.05;1.60;;;10.60;99.10;;;;;;4971316;28;20551;-79
2023/04/14 09:55:06;;;;;;;6.32;1.60;;;10.60;98.20;;;;;;4980161;28;20484;-80
2023/04/14 09:57:33;;;;;;;5.57;1.40;;;10.70;98.10;;;;;;4970743;28;20045;-80
2023/04/14 09:59:58;;;;;;;10.85;2.33;;;10.70;97.90;;;;;;4969471;28;20041;-80
2023/04/14 10:02:25;;;;;;;4.00;1.30;;;10.80;98.50;;;;;;4971763;28;20023;-79
2023/04/14 10:05:11;;;;;;;6.47;1.35;;;10.90;98.60;;;;;;4970563;28;20023;-80
2023/04/14 10:07:40;;;;;;;5.03;1.48;;;11.00;98.20;;;;;;4968868;28;20085;-80
2023/04/14 10:10:09;;;;;;;7.68;1.45;;;11.00;97.70;;;;;;4986560;28;20022;-80
2023/04/14 10:12:34;;;;;;;5.82;1.48;;;11.20;97.70;;;;;;4966325;28;20054;-79
2023/04/14 10:15:00;;;;;;;4.05;1.60;;;11.30;96.90;;;;;;4968513;28;20518;-80
2023/04/14 10:17:26;;;;;;;5.72;1.70;;;11.40;96.80;;;;;;4983919;28;20081;-79
2023/04/14 10:19:52;;;;;;;7.07;1.65;;;11.50;96.80;;;;;;4982732;23;20434;-77
2023/04/14 10:22:19;;;;;;;7.03;1.52;;;11.50;95.40;;;;;;4978608;28;20181;-76
2023/04/14 10:24:46;;;;;;;7.45;1.70;;;11.60;94.50;;;;;;4986946;28;20022;-77
2023/04/14 10:27:12;;;;;;;9.05;1.60;;;11.60;94.30;;;;;;4991138;28;20482;-77
2023/04/14 10:29:40;;;;;;;4.53;1.70;;;11.60;94.70;;;;;;4988417;28;20030;-77
2023/04/14 10:32:12;;;;;;;4.75;2.08;;;11.60;94.00;;;;;;4988436;28;20022;-77
2023/04/14 10:34:52;;;;;;;7.53;1.80;;;11.70;93.20;;;;;;4992212;28;20333;-77
2023/04/14 10:37:17;;;;;;;3.97;1.00;;;11.80;93.20;;;;;;4986311;28;20030;-77
2023/04/14 10:39:56;;;;;;;5.80;1.45;;;11.90;92.90;;;;;;4984843;28;20097;-78
2023/04/14 10:42:23;;;;;;;9.07;1.88;;;12.10;92.30;;;;;;4989360;28;20034;-77
2023/04/14 10:45:21;;;;;;;7.55;1.52;;;12.20;92.00;;;;;;4989219;28;20038;-77
2023/04/14 10:47:48;;;;;;;6.50;1.38;;;12.40;90.40;;;;;;4945944;28;20038;-77
2023/04/14 10:50:22;;;;;;;5.25;1.17;;;12.50;90.60;;;;;;4991276;28;20031;-77
2023/04/14 10:52:50;;;;;;;5.22;1.52;;;12.60;90.20;;;;;;4988742;28;20073;-77
2023/04/14 10:55:20;;;;;;;4.10;1.10;;;12.70;89.30;;;;;;4987919;28;20030;-76
2023/04/14 10:57:45;;;;;;;5.03;1.80;;;12.70;87.30;;;;;;4988700;28;20030;-77
2023/04/14 11:00:24;;;;;;;5.65;1.13;;;12.80;86.30;;;;;;4983294;28;20019;-78
2023/04/14 11:03:12;;;;;;;3.92;1.40;;;12.80;85.50;;;;;;4987295;28;20058;-76
2023/04/14 11:05:51;;;;;;;3.17;1.27;;;12.90;85.20;;;;;;4986354;28;20402;-76
2023/04/14 11:08:25;;;;;;;5.68;1.50;;;12.90;84.90;;;;;;4992013;28;20073;-76
2023/04/14 11:11:03;;;;;;;5.90;1.50;;;12.90;84.50;;;;;;4988302;28;20031;-77
2023/04/14 11:13:29;;;;;;;3.88;1.50;;;13.00;85.10;;;;;;4986088;28;20508;-77
2023/04/14 11:16:03;;;;;;;4.78;1.52;;;13.00;84.70;;;;;;4988119;28;20539;-78
2023/04/14 11:18:29;;;;;;;4.05;1.20;;;13.00;83.10;;;;;;4986222;28;20031;-77
2023/04/14 11:21:06;;;;;;;5.53;1.52;;;12.90;82.90;;;;;;4988649;28;20026;-76
2023/04/14 11:23:33;;;;;;;3.00;1.00;;;12.90;83.60;;;;;;5004675;28;20030;-77
2023/04/14 11:25:59;;;;;;;4.93;1.20;;;12.90;81.10;;;;;;4989928;28;20480;-76
2023/04/14 11:28:35;;;;;;;2.65;0.80;;;12.90;80.90;;;;;;5001561;28;20061;-77
2023/04/14 11:31:03;;;;;;;3.33;1.00;;;12.90;79.80;;;;;;4987352;28;20014;-76
2023/04/14 11:33:37;;;;;;;4.85;1.27;;;13.00;79.50;;;;;;5006169;28;20037;-77
2023/04/14 11:36:04;;;;;;;6.50;1.20;;;13.00;78.90;;;;;;4989639;28;20129;-77
2023/04/14 11:38:31;;;;;;;3.42;1.10;;;13.00;79.10;;;;;;4984677;28;20100;-77
2023/04/14 11:40:57;;;;;;;4.20;1.00;;;13.00;77.60;;;;;;4982977;28;20053;-77
2023/04/14 11:43:23;;;;;;;4.35;1.10;;;13.00;77.20;;;;;;4988720;28;20054;-77
2023/04/14 11:45:51;;;;;;;7.30;1.13;;;13.00;76.10;;;;;;4985217;28;20080;-76
2023/04/14 11:48:18;;;;;;;6.43;1.60;;;12.80;75.20;;;;;;4988952;28;20026;-78
2023/04/14 11:50:46;;;;;;;5.45;1.35;;;12.80;75.30;;;;;;4988780;28;20092;-77
2023/04/14 11:53:13;;;;;;;5.00;1.33;;;12.70;75.90;;;;;;4984321;28;20033;-77
2023/04/14 11:55:50;;;;;;;3.72;1.00;;;12.70;76.80;;;;;;4985719;28;20514;-76
2023/04/14 11:58:24;;;;;;;3.28;1.33;;;12.70;77.60;;;;;;4985478;28;20149;-78
2023/04/14 12:00:50;;;;;;;6.18;1.42;;;12.70;77.50;;;;;;4982224;28;20396;-77
2023/04/14 12:03:16;;;;;;;3.33;0.82;;;12.80;77.00;;;;;;4986615;28;20026;-77
2023/04/14 12:05:42;;;;;;;5.80;1.40;;;12.70;76.30;;;;;;4998795;28;20071;-77
2023/04/14 12:08:09;;;;;;;2.72;0.95;;;12.80;77.40;;;;;;4984513;28;20043;-76
2023/04/14 12:10:36;;;;;;;4.82;1.35;;;12.80;76.80;;;;;;4978700;28;20037;-76
2023/04/14 12:13:07;;;;;;;4.65;1.10;;;12.80;76.30;;;;;;4982256;28;20034;-76
2023/04/14 12:15:36;;;;;;;4.88;1.45;;;12.80;75.90;;;;;;4981064;28;20053;-76
2023/04/14 12:18:13;;;;;;;3.92;1.10;;;12.70;74.60;;;;;;4986818;28;20019;-77
2023/04/14 12:20:51;;;;;;;2.88;1.08;;;12.70;74.20;;;;;;4986830;28;20046;-77
2023/04/14 12:23:16;;;;;;;3.35;1.15;;;12.70;73.90;;;;;;4985384;28;20026;-76
2023/04/14 12:25:42;;;;;;;1.60;0.98;;;12.70;73.40;;;;;;4983906;28;20030;-77
2023/04/14 12:28:08;;;;;;;3.35;1.00;;;12.60;73.80;;;;;;4985583;28;20034;-77
2023/04/14 12:30:35;;;;;;;5.63;1.00;;;12.60;73.60;;;;;;4985949;28;20034;-77
2023/04/14 12:33:11;;;;;;;4.35;1.17;;;12.50;73.40;;;;;;4988709;28;20025;-77
2023/04/14 12:35:37;;;;;;;4.93;1.00;;;12.50;72.20;;;;;;4985201;28;20105;-77
2023/04/14 12:38:11;;;;;;;2.40;1.02;;;12.50;73.00;;;;;;4985421;28;20188;-77
2023/04/14 12:40:45;;;;;;;4.25;1.00;;;12.50;73.10;;;;;;4979066;28;20216;-77
2023/04/14 12:43:12;;;;;;;3.67;0.73;;;12.50;73.70;;;;;;5004277;28;20034;-77
2023/04/14 12:45:49;;;;;;;5.78;1.33;;;12.60;73.80;;;;;;5016822;28;20081;-77
2023/04/14 12:48:16;;;;;;;5.05;1.58;;;12.60;74.50;;;;;;5002978;28;20026;-78
2023/04/14 12:50:43;;;;;;;2.80;0.90;;;12.60;75.10;;;;;;5001999;28;20079;-78
2023/04/14 12:53:26;;;;;;;2.45;0.70;;;12.70;74.20;;;;;;5005874;28;20026;-77
2023/04/14 12:56:12;;;;;;;3.15;0.95;;;12.80;73.20;;;;;;5005682;28;20026;-77
2023/04/14 12:58:45;;;;;;;2.88;1.35;;;13.00;72.00;;;;;;5007652;28;20042;-77
2023/04/14 13:01:12;;;;;;;5.60;0.90;;;13.10;71.30;;;;;;5002525;28;20238;-77